createdAt,value
2022-08-04T00:01:58.012Z,73.10
2022-08-04T00:17:00.061Z,67.40
2022-08-04T00:32:02.949Z,74.80
2022-08-04T00:47:10.385Z,74.02
2022-08-04T01:02:23.276Z,75.32
2022-08-04T01:17:26.378Z,73.74
2022-08-04T01:32:32.373Z,66.89
2022-08-04T01:47:37.766Z,77.10
2022-08-04T02:02:39.727Z,67.37
2022-08-04T02:17:44.207Z,78.99
2022-08-04T02:32:47.080Z,71.18
2022-08-04T02:48:08.206Z,67.68
2022-08-04T03:03:13.013Z,70.64
2022-08-04T03:18:14.664Z,74.92
2022-08-04T03:33:34.200Z,71.61
2022-08-04T03:48:44.938Z,67.61
2022-08-04T04:03:58.533Z,64.34
2022-08-04T04:19:00.068Z,70.28
2022-08-04T04:34:04.712Z,68.70
2022-08-04T04:49:33.289Z,72.28
2022-08-04T05:04:34.803Z,70.40
2022-08-04T05:19:45.381Z,69.96
2022-08-04T05:34:52.657Z,59.28
2022-08-04T05:50:01.643Z,57.35
2022-08-04T06:05:06.031Z,55.97
2022-08-04T06:20:19.504Z,60.79
2022-08-04T06:35:25.011Z,54.74
2022-08-04T06:51:27.839Z,56.81
2022-08-04T07:05:49.210Z,54.17
2022-08-04T07:20:51.465Z,51.68
2022-08-04T07:36:04.518Z,52.37
2022-08-04T07:51:12.645Z,50.99
2022-08-04T08:06:30.694Z,48.60
2022-08-04T08:21:35.502Z,49.67
2022-08-04T08:37:13.599Z,41.03
2022-08-04T08:52:56.333Z,37.30
2022-08-04T09:07:58.534Z,39.35
2022-08-04T09:23:08.948Z,37.48
2022-08-04T09:38:39.729Z,33.10
2022-08-04T09:54:30.508Z,30.73
2022-08-04T10:09:45.146Z,30.29
2022-08-04T10:25:05.331Z,31.55
2022-08-04T10:40:40.964Z,25.85
2022-08-04T10:56:07.717Z,26.44
